createdAt,value
2023-05-20T00:00:32.677Z,13.11
2023-05-20T00:03:01.009Z,12.60
2023-05-20T00:05:29.020Z,12.51
2023-05-20T00:07:56.988Z,12.70
2023-05-20T00:10:26.310Z,12.66
2023-05-20T00:12:54.235Z,12.94
2023-05-20T00:15:22.093Z,12.55
2023-05-20T00:17:50.063Z,12.39
2023-05-20T00:20:18.261Z,12.41
2023-05-20T00:22:46.203Z,12.39
2023-05-20T00:25:14.730Z,12.55
2023-05-20T00:27:43.950Z,12.24
2023-05-20T00:30:12.508Z,12.39
2023-05-20T00:32:40.653Z,12.34
2023-05-20T00:35:09.374Z,12.71
2023-05-20T00:37:37.302Z,12.57
2023-05-20T00:40:05.737Z,12.48
2023-05-20T00:42:33.734Z,12.39
2023-05-20T00:45:03.230Z,12.42
2023-05-20T00:47:34.324Z,12.41
2023-05-20T00:50:03.465Z,12.47
2023-05-20T00:52:33.073Z,12.64
2023-05-20T00:55:01.356Z,12.49
2023-05-20T00:57:29.664Z,12.56
2023-05-20T00:59:58.425Z,12.25
2023-05-20T01:02:28.050Z,12.20
2023-05-20T01:04:56.975Z,12.14
2023-05-20T01:07:25.524Z,12.08
2023-05-20T01:09:54.379Z,12.21
2023-05-20T01:12:28.178Z,12.13
2023-05-20T01:15:00.550Z,12.43
2023-05-20T01:17:33.319Z,12.16
2023-05-20T01:20:04.195Z,12.14
2023-05-20T01:22:33.558Z,12.04
2023-05-20T01:25:03.050Z,12.31
2023-05-20T01:27:31.380Z,12.46
2023-05-20T01:29:59.303Z,12.31
2023-05-20T01:32:33.027Z,12.49
2023-05-20T01:35:01.588Z,12.38
2023-05-20T01:37:31.460Z,12.07
2023-05-20T01:40:01.631Z,11.75
2023-05-20T01:42:30.475Z,11.81
2023-05-20T01:45:00.131Z,11.94
2023-05-20T01:47:28.023Z,11.85
2023-05-20T01:49:56.349Z,12.12
2023-05-20T01:52:24.791Z,11.76
2023-05-20T01:54:52.711Z,11.75
2023-05-20T01:57:22.896Z,11.90
2023-05-20T01:59:52.269Z,12.07
2023-05-20T02:02:20.292Z,11.77
2023-05-20T02:04:51.355Z,11.49
2023-05-20T02:07:20.144Z,11.87
2023-05-20T02:09:48.413Z,11.62
2023-05-20T02:12:17.455Z,11.95
2023-05-20T02:14:48.185Z,11.69
2023-05-20T02:17:18.449Z,11.45
2023-05-20T02:19:47.245Z,11.60
2023-05-20T02:22:15.606Z,11.62
2023-05-20T02:24:44.886Z,11.72
2023-05-20T02:27:13.177Z,11.71
2023-05-20T02:29:41.212Z,11.71
2023-05-20T02:32:11.214Z,11.69
2023-05-20T02:34:39.139Z,11.90
2023-05-20T02:37:07.138Z,11.82
2023-05-20T02:39:35.624Z,12.14
2023-05-20T02:42:04.683Z,11.84
2023-05-20T02:44:32.647Z,11.53
2023-05-20T02:47:00.630Z,11.81
2023-05-20T02:49:29.986Z,11.73
2023-05-20T02:51:58.092Z,11.88
2023-05-20T02:54:26.011Z,12.08
2023-05-20T02:56:53.932Z,12.12
2023-05-20T02:59:21.879Z,11.77
2023-05-20T03:01:49.874Z,11.62
2023-05-20T03:04:19.354Z,11.70
2023-05-20T03:06:48.769Z,11.79
2023-05-20T03:09:17.069Z,11.53
2023-05-20T03:11:45.434Z,11.67
2023-05-20T03:14:13.386Z,11.76
2023-05-20T03:16:41.666Z,11.32
2023-05-20T03:19:09.641Z,11.38
2023-05-20T03:21:37.704Z,11.70
2023-05-20T03:24:07.396Z,11.66
2023-05-20T03:26:37.611Z,11.59
2023-05-20T03:29:06.906Z,11.61
2023-05-20T03:31:34.872Z,11.31
2023-05-20T03:34:02.907Z,11.35
2023-05-20T03:36:31.137Z,11.17
2023-05-20T03:38:59.117Z,11.51
2023-05-20T03:41:28.523Z,11.39
2023-05-20T03:43:57.487Z,11.30
2023-05-20T03:46:26.446Z,11.21
2023-05-20T03:48:54.496Z,11.75
2023-05-20T03:51:22.880Z,11.80
2023-05-20T03:53:51.767Z,11.92
2023-05-20T03:56:19.685Z,11.92
2023-05-20T03:58:49.077Z,11.78
2023-05-20T04:01:17.330Z,12.11
2023-05-20T04:03:45.437Z,12.20
2023-05-20T04:06:14.978Z,12.43
2023-05-20T04:08:43.138Z,12.40
2023-05-20T04:11:11.133Z,12.20
2023-05-20T04:13:39.004Z,12.38
2023-05-20T04:16:08.915Z,12.64
2023-05-20T04:18:39.082Z,12.07
2023-05-20T04:21:08.357Z,12.12
2023-05-20T04:23:36.378Z,12.18
2023-05-20T04:26:04.424Z,12.37
2023-05-20T04:28:33.580Z,12.52
2023-05-20T04:31:02.849Z,12.08
2023-05-20T04:33:33.653Z,12.13
2023-05-20T04:36:03.142Z,12.11
2023-05-20T04:38:32.569Z,12.68
2023-05-20T04:41:02.391Z,12.67
2023-05-20T04:43:31.038Z,12.22
2023-05-20T04:46:01.474Z,12.61
2023-05-20T04:48:29.612Z,12.35
2023-05-20T04:50:59.473Z,12.68
2023-05-20T04:53:27.767Z,12.89
2023-05-20T04:55:57.105Z,12.64
2023-05-20T04:58:25.869Z,12.97
2023-05-20T05:00:54.151Z,12.93
2023-05-20T05:03:22.062Z,12.85
2023-05-20T05:05:50.558Z,12.86
2023-05-20T05:08:19.872Z,12.96
2023-05-20T05:10:51.857Z,12.65
2023-05-20T05:13:20.660Z,12.98
2023-05-20T05:15:49.611Z,13.02
2023-05-20T05:18:18.649Z,13.69
2023-05-20T05:20:46.799Z,12.70
2023-05-20T05:23:15.512Z,12.65
2023-05-20T05:25:44.736Z,13.66
2023-05-20T05:28:12.690Z,13.02
2023-05-20T05:30:40.605Z,12.84
2023-05-20T05:33:08.587Z,13.18
2023-05-20T05:35:36.540Z,13.18
2023-05-20T05:38:04.541Z,13.29
2023-05-20T05:40:32.445Z,13.38
2023-05-20T05:43:01.796Z,13.13
2023-05-20T05:45:29.662Z,13.62
2023-05-20T05:47:57.714Z,13.41
2023-05-20T05:50:26.443Z,13.29
2023-05-20T05:52:55.026Z,13.03
2023-05-20T05:55:23.827Z,13.60
2023-05-20T05:57:53.009Z,13.87
2023-05-20T06:00:22.313Z,14.31
2023-05-20T06:02:50.870Z,14.30
2023-05-20T06:05:30.576Z,14.52
2023-05-20T06:07:58.994Z,14.18
2023-05-20T06:10:27.220Z,14.28
2023-05-20T06:12:56.289Z,14.41
2023-05-20T06:15:25.977Z,14.38
2023-05-20T06:17:54.023Z,15.00
2023-05-20T06:20:22.035Z,14.90
2023-05-20T06:22:50.155Z,14.53
2023-05-20T06:25:18.368Z,14.47
2023-05-20T06:27:47.031Z,14.43
2023-05-20T06:30:18.870Z,14.40
2023-05-20T06:32:48.331Z,14.77
2023-05-20T06:35:17.069Z,15.29
2023-05-20T06:37:45.052Z,15.08
2023-05-20T06:40:14.070Z,15.00
2023-05-20T06:42:42.236Z,14.59
2023-05-20T06:45:10.883Z,14.69
2023-05-20T06:47:54.711Z,15.07
2023-05-20T06:50:22.756Z,14.74
2023-05-20T06:52:51.000Z,15.05
2023-05-20T06:55:19.694Z,14.89
2023-05-20T06:57:48.063Z,14.66
2023-05-20T07:00:18.466Z,14.97
2023-05-20T07:02:46.469Z,14.86
2023-05-20T07:05:17.255Z,14.99
2023-05-20T07:07:46.806Z,15.51
2023-05-20T07:10:16.407Z,15.85
2023-05-20T07:12:45.513Z,15.67
2023-05-20T07:15:18.560Z,15.63
2023-05-20T07:17:46.615Z,15.85
2023-05-20T07:20:17.200Z,16.39
2023-05-20T07:22:45.832Z,15.86
2023-05-20T07:25:16.298Z,15.41
2023-05-20T07:27:44.540Z,15.96
2023-05-20T07:30:12.998Z,16.17
2023-05-20T07:32:43.150Z,16.19
2023-05-20T07:35:11.215Z,16.20
2023-05-20T07:37:40.769Z,16.41
2023-05-20T07:40:09.793Z,16.38
2023-05-20T07:42:39.222Z,16.91
2023-05-20T07:45:08.323Z,16.85
2023-05-20T07:47:36.253Z,16.25
2023-05-20T07:50:04.290Z,15.64
2023-05-20T07:52:44.070Z,16.78
2023-05-20T07:55:24.438Z,17.03
2023-05-20T07:57:52.606Z,16.43
2023-05-20T08:00:21.817Z,16.23
2023-05-20T08:02:49.833Z,16.55
2023-05-20T08:05:26.651Z,16.25
2023-05-20T08:07:54.897Z,16.37
2023-05-20T08:10:26.897Z,17.28
2023-05-20T08:12:56.011Z,17.21
2023-05-20T08:15:24.480Z,16.28
2023-05-20T08:17:52.654Z,16.44
2023-05-20T08:20:21.249Z,16.81
2023-05-20T08:22:51.037Z,16.62
2023-05-20T08:25:19.084Z,16.73
2023-05-20T08:27:49.042Z,16.93
2023-05-20T08:30:17.708Z,17.58
2023-05-20T08:32:45.743Z,17.38
2023-05-20T08:35:13.844Z,17.19
2023-05-20T08:37:41.833Z,16.20
2023-05-20T08:40:11.883Z,16.39
2023-05-20T08:42:43.434Z,16.77
2023-05-20T08:45:16.883Z,16.75
2023-05-20T08:47:45.208Z,16.43
2023-05-20T08:50:14.630Z,16.39
2023-05-20T08:52:45.319Z,16.35
2023-05-20T08:55:17.299Z,16.22
2023-05-20T08:57:47.227Z,16.49
2023-05-20T09:00:18.337Z,16.66
2023-05-20T09:02:47.325Z,16.64
2023-05-20T09:05:15.509Z,16.78
2023-05-20T09:07:43.757Z,17.75
2023-05-20T09:10:12.284Z,17.88
2023-05-20T09:12:40.447Z,18.56
2023-05-20T09:15:09.736Z,17.22
2023-05-20T09:17:39.701Z,17.98
2023-05-20T09:20:09.820Z,17.32
2023-05-20T09:22:37.969Z,17.93
2023-05-20T09:25:06.727Z,18.00
2023-05-20T09:27:34.929Z,18.31
2023-05-20T09:30:02.744Z,18.34
2023-05-20T09:32:30.757Z,18.20
2023-05-20T09:35:01.362Z,17.87
2023-05-20T09:37:31.094Z,17.82
2023-05-20T09:40:03.996Z,18.03
2023-05-20T09:42:39.154Z,17.76
2023-05-20T09:45:09.407Z,18.55
2023-05-20T09:47:40.663Z,17.50
2023-05-20T09:50:11.144Z,17.69
2023-05-20T09:52:40.055Z,18.44
2023-05-20T09:55:10.414Z,18.42
2023-05-20T09:57:39.010Z,18.26
2023-05-20T10:00:08.553Z,18.39
2023-05-20T10:02:44.913Z,17.77
2023-05-20T10:05:19.357Z,18.46
2023-05-20T10:08:16.288Z,18.31
2023-05-20T10:10:49.504Z,18.32
2023-05-20T10:13:32.407Z,18.78
2023-05-20T10:16:09.407Z,18.72
2023-05-20T10:18:49.897Z,19.02
2023-05-20T10:21:24.402Z,21.40
2023-05-20T10:23:52.785Z,22.16
2023-05-20T10:26:21.880Z,19.31
2023-05-20T10:28:50.410Z,19.51
2023-05-20T10:31:19.355Z,18.89
2023-05-20T10:33:47.750Z,20.42
2023-05-20T10:36:27.811Z,20.38
2023-05-20T10:38:56.619Z,20.10
2023-05-20T10:41:26.701Z,21.79
2023-05-20T10:44:03.074Z,21.94
2023-05-20T10:46:41.863Z,21.69
2023-05-20T10:49:22.408Z,21.48
2023-05-20T10:51:54.020Z,22.09
2023-05-20T10:54:23.263Z,21.79
2023-05-20T10:56:55.150Z,21.92
2023-05-20T10:59:23.494Z,21.49
2023-05-20T11:01:51.953Z,21.15
2023-05-20T11:04:20.693Z,22.75
2023-05-20T11:06:55.983Z,22.67
2023-05-20T11:09:24.076Z,21.75
2023-05-20T11:11:53.314Z,21.32
2023-05-20T11:14:22.976Z,22.21
2023-05-20T11:16:54.017Z,22.45
2023-05-20T11:19:22.636Z,23.68
2023-05-20T11:21:51.469Z,22.65
2023-05-20T11:24:27.103Z,21.15
2023-05-20T11:26:55.383Z,22.45
2023-05-20T11:29:23.313Z,23.25
2023-05-20T11:31:52.219Z,22.74
2023-05-20T11:34:25.584Z,23.68
2023-05-20T11:36:57.642Z,22.90
2023-05-20T11:39:28.005Z,22.72
2023-05-20T11:41:56.077Z,22.02
2023-05-20T11:44:24.017Z,22.62
2023-05-20T11:46:51.884Z,23.20
2023-05-20T11:49:19.789Z,23.68
2023-05-20T11:51:47.582Z,22.66
2023-05-20T11:54:15.474Z,21.92
2023-05-20T11:56:45.474Z,22.81
2023-05-20T11:59:14.792Z,22.87
2023-05-20T12:01:43.058Z,22.41
2023-05-20T12:04:13.290Z,22.95
2023-05-20T12:06:42.883Z,23.01
2023-05-20T12:09:11.778Z,22.37
2023-05-20T12:11:41.595Z,22.54
2023-05-20T12:14:11.519Z,22.76
2023-05-20T12:16:39.785Z,22.39
2023-05-20T12:19:08.769Z,21.59
2023-05-20T12:21:36.807Z,22.52
2023-05-20T12:24:07.152Z,22.53
2023-05-20T12:26:35.512Z,21.78
2023-05-20T12:29:03.455Z,21.84
2023-05-20T12:31:35.001Z,21.46
2023-05-20T12:34:03.164Z,21.34
2023-05-20T12:36:31.493Z,21.15
2023-05-20T12:38:59.448Z,20.50
2023-05-20T12:41:27.489Z,20.29
2023-05-20T12:43:55.400Z,20.08
2023-05-20T12:46:23.538Z,20.40
2023-05-20T12:48:53.220Z,21.15
2023-05-20T12:51:21.182Z,21.81
2023-05-20T12:53:49.237Z,21.03
2023-05-20T12:56:17.716Z,20.48
2023-05-20T12:58:45.589Z,21.51
2023-05-20T13:01:13.532Z,22.26
2023-05-20T13:03:41.512Z,22.47
2023-05-20T13:06:10.857Z,22.47
2023-05-20T13:08:38.779Z,21.49
2023-05-20T13:11:06.820Z,22.15
2023-05-20T13:13:34.803Z,21.65
2023-05-20T13:16:03.017Z,21.76
2023-05-20T13:18:31.010Z,22.04
2023-05-20T13:20:58.892Z,22.07
2023-05-20T13:23:28.232Z,21.68
2023-05-20T13:25:56.323Z,21.75
2023-05-20T13:28:24.213Z,20.92
2023-05-20T13:30:52.451Z,22.82
2023-05-20T13:33:20.528Z,22.48
2023-05-20T13:35:48.490Z,22.55
2023-05-20T13:38:16.663Z,22.82
2023-05-20T13:40:45.937Z,22.31
2023-05-20T13:43:13.833Z,22.87
2023-05-20T13:45:41.792Z,23.60
2023-05-20T13:48:09.682Z,20.82
2023-05-20T13:50:37.807Z,20.87
2023-05-20T13:53:05.919Z,20.86
2023-05-20T13:55:33.868Z,20.51
2023-05-20T13:58:03.131Z,23.02
2023-05-20T14:00:31.057Z,24.56
2023-05-20T14:03:00.869Z,24.95
2023-05-20T14:05:28.945Z,24.27
2023-05-20T14:07:56.824Z,26.70
2023-05-20T14:10:24.735Z,27.09
2023-05-20T14:12:53.306Z,26.50
2023-05-20T14:15:22.675Z,26.10
2023-05-20T14:17:50.772Z,25.97
2023-05-20T14:20:18.805Z,25.14
2023-05-20T14:22:46.738Z,24.92
2023-05-20T14:25:14.633Z,24.14
2023-05-20T14:27:42.494Z,25.22
2023-05-20T14:30:11.545Z,23.73
2023-05-20T14:32:40.926Z,24.13
2023-05-20T14:35:09.707Z,23.99
2023-05-20T14:37:37.592Z,23.23
2023-05-20T14:40:07.481Z,22.75
2023-05-20T14:42:35.593Z,22.67
2023-05-20T14:45:04.047Z,23.14
2023-05-20T14:47:32.030Z,23.09
2023-05-20T14:50:01.574Z,22.71
2023-05-20T14:52:29.510Z,23.05
2023-05-20T14:54:57.735Z,23.34
2023-05-20T14:57:25.667Z,23.21
2023-05-20T14:59:53.618Z,22.87
2023-05-20T15:02:21.596Z,21.81
2023-05-20T15:04:49.540Z,21.62
2023-05-20T15:07:18.819Z,21.71
2023-05-20T15:09:46.792Z,21.44
2023-05-20T15:12:14.762Z,21.53
2023-05-20T15:14:42.664Z,21.61
2023-05-20T15:17:10.574Z,21.93
2023-05-20T15:19:41.409Z,21.78
2023-05-20T15:22:09.867Z,22.12
2023-05-20T15:24:39.142Z,22.02
2023-05-20T15:27:07.340Z,21.87
2023-05-20T15:29:35.262Z,21.48
2023-05-20T15:32:03.309Z,21.69
2023-05-20T15:34:31.178Z,21.26
2023-05-20T15:36:59.087Z,21.41
2023-05-20T15:39:28.265Z,21.82
2023-05-20T15:41:59.480Z,21.25
2023-05-20T15:44:28.685Z,20.99
2023-05-20T15:46:56.768Z,20.65
2023-05-20T15:49:24.794Z,21.20
2023-05-20T15:52:02.974Z,20.90
2023-05-20T15:54:31.807Z,20.87
2023-05-20T15:57:01.157Z,20.64
2023-05-20T15:59:29.097Z,20.08
2023-05-20T16:01:56.982Z,20.62
2023-05-20T16:04:25.075Z,20.40
2023-05-20T16:06:53.129Z,21.12
2023-05-20T16:09:21.154Z,20.68
2023-05-20T16:11:49.285Z,20.90
2023-05-20T16:14:18.624Z,20.27
2023-05-20T16:16:46.703Z,21.03
2023-05-20T16:19:14.726Z,20.90
2023-05-20T16:21:42.630Z,20.69
2023-05-20T16:24:10.523Z,20.51
2023-05-20T16:26:38.426Z,20.97
2023-05-20T16:29:06.502Z,21.05
2023-05-20T16:31:36.154Z,20.69
2023-05-20T16:34:04.929Z,20.76
2023-05-20T16:36:32.813Z,20.79
2023-05-20T16:39:00.773Z,20.67
2023-05-20T16:41:28.982Z,20.80
2023-05-20T16:43:56.801Z,20.65
2023-05-20T16:46:24.821Z,20.46
2023-05-20T16:48:54.028Z,20.89
2023-05-20T16:51:22.122Z,20.79
2023-05-20T16:53:50.014Z,20.67
2023-05-20T16:56:17.975Z,20.36
2023-05-20T16:58:45.970Z,20.53
2023-05-20T17:01:13.874Z,20.67
2023-05-20T17:03:41.989Z,19.82
2023-05-20T17:06:11.227Z,19.98
2023-05-20T17:08:39.503Z,19.64
2023-05-20T17:11:07.314Z,19.98
2023-05-20T17:13:35.245Z,20.14
2023-05-20T17:16:03.291Z,20.22
2023-05-20T17:18:31.313Z,20.14
2023-05-20T17:20:59.268Z,21.07
2023-05-20T17:23:28.585Z,20.72
2023-05-20T17:25:56.517Z,20.77
2023-05-20T17:28:24.437Z,20.51
2023-05-20T17:30:52.383Z,20.55
2023-05-20T17:33:20.417Z,20.42
2023-05-20T17:35:48.479Z,20.27
2023-05-20T17:38:16.419Z,20.67
2023-05-20T17:40:45.709Z,20.31
2023-05-20T17:43:13.685Z,20.57
2023-05-20T17:45:41.578Z,20.51
2023-05-20T17:48:11.655Z,21.01
2023-05-20T17:50:39.991Z,20.54
2023-05-20T17:53:07.885Z,20.37
2023-05-20T17:55:36.513Z,20.55
2023-05-20T17:58:07.147Z,20.21
2023-05-20T18:00:41.886Z,20.02
2023-05-20T18:03:10.316Z,20.68
2023-05-20T18:05:38.439Z,20.37
2023-05-20T18:08:06.666Z,19.85
2023-05-20T18:10:34.701Z,20.10
2023-05-20T18:13:02.804Z,19.96
2023-05-20T18:15:32.190Z,19.69
2023-05-20T18:18:00.156Z,20.02
2023-05-20T18:20:28.091Z,19.63
2023-05-20T18:22:58.414Z,20.23
2023-05-20T18:25:26.907Z,19.84
2023-05-20T18:27:55.041Z,20.01
2023-05-20T18:30:23.283Z,19.28
2023-05-20T18:32:53.218Z,19.25
2023-05-20T18:35:21.231Z,19.53
2023-05-20T18:37:49.104Z,20.23
2023-05-20T18:40:16.876Z,19.73
2023-05-20T18:42:45.810Z,19.50
2023-05-20T18:45:13.715Z,18.83
2023-05-20T18:47:41.622Z,19.42
2023-05-20T18:50:12.182Z,19.52
2023-05-20T18:52:39.981Z,19.68
2023-05-20T18:55:08.774Z,19.10
2023-05-20T18:57:36.719Z,19.20
2023-05-20T19:00:08.423Z,19.56
2023-05-20T19:02:36.292Z,19.11
2023-05-20T19:05:04.127Z,19.14
2023-05-20T19:07:33.523Z,19.35
2023-05-20T19:10:02.017Z,19.32
2023-05-20T19:12:30.186Z,19.18
2023-05-20T19:14:58.328Z,19.11
2023-05-20T19:17:26.210Z,18.93
2023-05-20T19:19:53.989Z,19.30
2023-05-20T19:22:21.742Z,18.56
2023-05-20T19:24:50.966Z,18.76
2023-05-20T19:27:18.840Z,18.53
2023-05-20T19:29:46.715Z,18.59
2023-05-20T19:32:14.500Z,18.78
2023-05-20T19:34:43.819Z,18.49
2023-05-20T19:37:11.859Z,18.61
2023-05-20T19:39:39.853Z,18.04
2023-05-20T19:42:09.037Z,17.76
2023-05-20T19:44:36.858Z,18.10
2023-05-20T19:47:05.550Z,18.07
2023-05-20T19:49:33.717Z,18.57
2023-05-20T19:52:01.545Z,18.36
2023-05-20T19:54:29.292Z,17.57
2023-05-20T19:56:57.091Z,17.94
2023-05-20T19:59:26.855Z,18.33
2023-05-20T20:01:54.739Z,18.07
2023-05-20T20:04:22.559Z,18.46
2023-05-20T20:06:50.664Z,18.85
2023-05-20T20:09:18.527Z,18.71
2023-05-20T20:11:46.464Z,18.25
2023-05-20T20:14:14.588Z,18.07
2023-05-20T20:16:49.332Z,18.16
2023-05-20T20:19:21.956Z,18.00
2023-05-20T20:21:52.251Z,18.71
2023-05-20T20:24:20.693Z,18.33
2023-05-20T20:26:48.588Z,18.35
2023-05-20T20:29:16.512Z,18.51
2023-05-20T20:31:45.824Z,18.68
2023-05-20T20:34:14.051Z,18.14
2023-05-20T20:36:44.923Z,18.09
2023-05-20T20:39:18.830Z,17.49
2023-05-20T20:41:47.285Z,17.51
2023-05-20T20:44:18.607Z,17.86
2023-05-20T20:46:50.713Z,17.70
2023-05-20T20:49:19.077Z,18.20
2023-05-20T20:51:47.539Z,18.43
2023-05-20T20:54:15.608Z,18.19
2023-05-20T20:56:45.479Z,18.25
2023-05-20T20:59:13.858Z,18.23
2023-05-20T21:01:42.254Z,18.10
2023-05-20T21:04:13.600Z,17.84
2023-05-20T21:06:42.225Z,17.86
2023-05-20T21:09:11.545Z,18.35
2023-05-20T21:11:42.190Z,18.20
2023-05-20T21:14:10.107Z,18.14
2023-05-20T21:16:38.221Z,17.97
2023-05-20T21:19:06.338Z,17.85
2023-05-20T21:21:36.216Z,18.29
2023-05-20T21:24:04.368Z,17.99
2023-05-20T21:26:32.190Z,17.88
2023-05-20T21:29:00.032Z,17.76
2023-05-20T21:31:28.044Z,18.00
2023-05-20T21:33:55.904Z,17.94
2023-05-20T21:36:23.815Z,18.04
2023-05-20T21:38:52.975Z,17.98
2023-05-20T21:41:21.438Z,18.02
2023-05-20T21:43:49.241Z,17.62
2023-05-20T21:46:17.221Z,18.15
2023-05-20T21:48:45.064Z,17.60
2023-05-20T21:51:12.834Z,17.95
2023-05-20T21:53:40.641Z,17.31
2023-05-20T21:56:09.856Z,17.53
2023-05-20T21:58:40.794Z,17.60
2023-05-20T22:01:09.578Z,17.12
2023-05-20T22:03:38.239Z,17.24
2023-05-20T22:06:06.897Z,16.89
2023-05-20T22:08:34.770Z,17.24
2023-05-20T22:11:05.970Z,17.17
2023-05-20T22:13:36.344Z,16.73
2023-05-20T22:16:05.161Z,17.00
2023-05-20T22:18:33.192Z,16.85
2023-05-20T22:21:01.324Z,16.88
2023-05-20T22:23:29.450Z,16.65
2023-05-20T22:25:57.518Z,16.90
2023-05-20T22:28:26.222Z,16.73
2023-05-20T22:30:55.813Z,16.82
2023-05-20T22:33:24.309Z,17.24
2023-05-20T22:35:53.436Z,16.92
2023-05-20T22:38:21.991Z,17.17
2023-05-20T22:40:49.886Z,17.06
2023-05-20T22:43:17.711Z,16.95
2023-05-20T22:45:45.676Z,16.86
2023-05-20T22:48:15.266Z,16.74
2023-05-20T22:50:43.065Z,16.71
2023-05-20T22:53:11.127Z,16.62
2023-05-20T22:55:39.568Z,16.46
2023-05-20T22:58:07.952Z,16.53
2023-05-20T23:00:36.124Z,16.81
2023-05-20T23:03:03.902Z,16.35
2023-05-20T23:05:33.367Z,16.58
2023-05-20T23:08:01.400Z,16.64
2023-05-20T23:10:29.394Z,16.50
2023-05-20T23:12:57.240Z,16.85
2023-05-20T23:15:25.509Z,16.98
2023-05-20T23:17:53.402Z,16.97
2023-05-20T23:20:22.237Z,16.81
2023-05-20T23:22:51.630Z,16.74
2023-05-20T23:25:19.446Z,16.39
2023-05-20T23:27:47.280Z,16.29
2023-05-20T23:30:15.092Z,16.17
2023-05-20T23:32:43.488Z,16.41
2023-05-20T23:35:13.162Z,16.02
2023-05-20T23:37:42.064Z,15.93
2023-05-20T23:40:11.723Z,15.99
2023-05-20T23:42:39.567Z,15.94
2023-05-20T23:45:08.119Z,15.99
2023-05-20T23:47:36.519Z,15.97
2023-05-20T23:50:04.952Z,15.98
2023-05-20T23:52:32.773Z,16.12
2023-05-20T23:55:00.941Z,16.11
2023-05-20T23:57:30.135Z,16.00
2023-05-20T23:59:57.993Z,16.24
